sensor_id;sensor_type;location;lat;lon;timestamp;P1;durP1;ratioP1;P2;durP2;ratioP2
47523;SDS011;33253;42.144;25.884;2024-02-21T00:00:53;35.75;;;20.55;;
47523;SDS011;33253;42.144;25.884;2024-02-21T00:03:19;28.13;;;17.55;;
47523;SDS011;33253;42.144;25.884;2024-02-21T00:05:45;28.05;;;17.23;;
47523;SDS011;33253;42.144;25.884;2024-02-21T00:08:11;30.98;;;17.55;;
47523;SDS011;33253;42.144;25.884;2024-02-21T00:10:36;29.80;;;18.13;;
47523;SDS011;33253;42.144;25.884;2024-02-21T00:13:02;27.98;;;17.48;;
47523;SDS011;33253;42.144;25.884;2024-02-21T00:15:28;34.42;;;20.55;;
47523;SDS011;33253;42.144;25.884;2024-02-21T00:17:53;29.10;;;18.40;;
47523;SDS011;33253;42.144;25.884;2024-02-21T00:20:19;33.25;;;19.13;;
47523;SDS011;33253;42.144;25.884;2024-02-21T00:22:45;36.00;;;17.40;;
47523;SDS011;33253;42.144;25.884;2024-02-21T00:25:11;26.42;;;16.23;;
47523;SDS011;33253;42.144;25.884;2024-02-21T00:27:36;29.05;;;16.75;;
47523;SDS011;33253;42.144;25.884;2024-02-21T00:30:02;27.77;;;16.27;;
47523;SDS011;33253;42.144;25.884;2024-02-21T00:32:28;25.15;;;14.98;;
47523;SDS011;33253;42.144;25.884;2024-02-21T00:34:53;30.25;;;16.27;;
47523;SDS011;33253;42.144;25.884;2024-02-21T00:37:19;31.48;;;17.17;;
47523;SDS011;33253;42.144;25.884;2024-02-21T00:39:45;30.10;;;18.58;;
47523;SDS011;33253;42.144;25.884;2024-02-21T00:42:10;32.75;;;18.92;;
47523;SDS011;33253;42.144;25.884;2024-02-21T00:44:36;30.02;;;17.25;;
47523;SDS011;33253;42.144;25.884;2024-02-21T00:47:01;41.28;;;20.00;;
47523;SDS011;33253;42.144;25.884;2024-02-21T00:49:27;35.80;;;19.45;;
47523;SDS011;33253;42.144;25.884;2024-02-21T00:51:52;28.85;;;17.42;;
47523;SDS011;33253;42.144;25.884;2024-02-21T00:54:18;27.95;;;16.48;;
47523;SDS011;33253;42.144;25.884;2024-02-21T00:56:43;26.38;;;15.95;;
47523;SDS011;33253;42.144;25.884;2024-02-21T00:59:09;27.65;;;16.58;;
47523;SDS011;33253;42.144;25.884;2024-02-21T01:01:34;22.70;;;14.15;;
47523;SDS011;33253;42.144;25.884;2024-02-21T01:04:00;26.98;;;14.65;;
47523;SDS011;33253;42.144;25.884;2024-02-21T01:06:25;26.50;;;15.18;;
47523;SDS011;33253;42.144;25.884;2024-02-21T01:08:51;24.35;;;13.52;;
47523;SDS011;33253;42.144;25.884;2024-02-21T01:11:16;25.45;;;15.23;;
47523;SDS011;33253;42.144;25.884;2024-02-21T01:13:42;23.40;;;15.30;;
47523;SDS011;33253;42.144;25.884;2024-02-21T01:16:07;29.33;;;15.75;;
47523;SDS011;33253;42.144;25.884;2024-02-21T01:18:33;23.98;;;15.68;;
47523;SDS011;33253;42.144;25.884;2024-02-21T01:20:59;26.02;;;14.52;;
47523;SDS011;33253;42.144;25.884;2024-02-21T01:23:25;26.67;;;16.23;;
47523;SDS011;33253;42.144;25.884;2024-02-21T01:25:50;26.38;;;15.02;;
47523;SDS011;33253;42.144;25.884;2024-02-21T01:28:17;25.58;;;15.18;;
47523;SDS011;33253;42.144;25.884;2024-02-21T01:30:43;26.25;;;15.10;;
47523;SDS011;33253;42.144;25.884;2024-02-21T01:33:08;30.30;;;17.08;;
47523;SDS011;33253;42.144;25.884;2024-02-21T01:35:34;25.48;;;15.65;;
47523;SDS011;33253;42.144;25.884;2024-02-21T01:38:00;31.20;;;16.77;;
47523;SDS011;33253;42.144;25.884;2024-02-21T01:40:26;24.92;;;15.07;;
47523;SDS011;33253;42.144;25.884;2024-02-21T01:42:52;27.23;;;16.05;;
47523;SDS011;33253;42.144;25.884;2024-02-21T01:45:20;24.17;;;14.35;;
47523;SDS011;33253;42.144;25.884;2024-02-21T01:47:45;22.92;;;14.45;;
47523;SDS011;33253;42.144;25.884;2024-02-21T01:50:11;23.27;;;14.52;;
47523;SDS011;33253;42.144;25.884;2024-02-21T01:52:37;24.55;;;14.68;;
47523;SDS011;33253;42.144;25.884;2024-02-21T01:55:04;22.08;;;13.48;;
47523;SDS011;33253;42.144;25.884;2024-02-21T01:57:30;22.70;;;14.05;;
47523;SDS011;33253;42.144;25.884;2024-02-21T01:59:57;24.65;;;14.90;;
47523;SDS011;33253;42.144;25.884;2024-02-21T02:02:22;22.73;;;14.35;;
47523;SDS011;33253;42.144;25.884;2024-02-21T02:04:49;23.55;;;14.07;;
47523;SDS011;33253;42.144;25.884;2024-02-21T02:07:16;26.50;;;14.98;;
47523;SDS011;33253;42.144;25.884;2024-02-21T02:09:42;23.88;;;14.82;;
47523;SDS011;33253;42.144;25.884;2024-02-21T02:12:08;25.67;;;15.27;;
47523;SDS011;33253;42.144;25.884;2024-02-21T02:14:33;27.27;;;16.13;;
47523;SDS011;33253;42.144;25.884;2024-02-21T02:16:59;24.42;;;13.63;;
47523;SDS011;33253;42.144;25.884;2024-02-21T02:19:24;23.25;;;15.30;;
47523;SDS011;33253;42.144;25.884;2024-02-21T02:21:50;23.10;;;14.15;;
47523;SDS011;33253;42.144;25.884;2024-02-21T02:24:21;26.58;;;14.65;;
47523;SDS011;33253;42.144;25.884;2024-02-21T02:26:49;27.70;;;14.68;;
47523;SDS011;33253;42.144;25.884;2024-02-21T02:29:14;26.30;;;15.35;;
47523;SDS011;33253;42.144;25.884;2024-02-21T02:31:40;26.20;;;15.27;;
47523;SDS011;33253;42.144;25.884;2024-02-21T02:34:05;25.40;;;14.20;;
47523;SDS011;33253;42.144;25.884;2024-02-21T02:36:35;25.80;;;15.02;;
47523;SDS011;33253;42.144;25.884;2024-02-21T02:39:00;26.65;;;15.77;;
47523;SDS011;33253;42.144;25.884;2024-02-21T02:41:26;27.00;;;15.73;;
47523;SDS011;33253;42.144;25.884;2024-02-21T02:43:51;27.50;;;16.23;;
47523;SDS011;33253;42.144;25.884;2024-02-21T02:46:17;26.50;;;14.75;;
47523;SDS011;33253;42.144;25.884;2024-02-21T02:48:42;26.35;;;15.35;;
47523;SDS011;33253;42.144;25.884;2024-02-21T02:51:08;24.35;;;14.95;;
47523;SDS011;33253;42.144;25.884;2024-02-21T02:53:33;26.23;;;14.80;;
47523;SDS011;33253;42.144;25.884;2024-02-21T02:55:59;28.00;;;14.73;;
47523;SDS011;33253;42.144;25.884;2024-02-21T02:58:24;22.33;;;14.40;;
47523;SDS011;33253;42.144;25.884;2024-02-21T03:00:50;24.10;;;14.35;;
47523;SDS011;33253;42.144;25.884;2024-02-21T03:03:15;23.67;;;13.40;;
47523;SDS011;33253;42.144;25.884;2024-02-21T03:05:41;22.77;;;13.93;;
47523;SDS011;33253;42.144;25.884;2024-02-21T03:08:06;25.05;;;14.82;;
47523;SDS011;33253;42.144;25.884;2024-02-21T03:10:33;25.25;;;14.95;;
47523;SDS011;33253;42.144;25.884;2024-02-21T03:12:59;28.80;;;14.95;;
47523;SDS011;33253;42.144;25.884;2024-02-21T03:15:24;28.15;;;15.95;;
47523;SDS011;33253;42.144;25.884;2024-02-21T03:17:50;27.83;;;17.08;;
47523;SDS011;33253;42.144;25.884;2024-02-21T03:20:15;29.83;;;16.60;;
47523;SDS011;33253;42.144;25.884;2024-02-21T03:22:42;31.55;;;16.20;;
47523;SDS011;33253;42.144;25.884;2024-02-21T03:25:08;31.90;;;16.35;;
47523;SDS011;33253;42.144;25.884;2024-02-21T03:27:35;27.52;;;16.60;;
47523;SDS011;33253;42.144;25.884;2024-02-21T03:30:01;27.95;;;16.30;;
47523;SDS011;33253;42.144;25.884;2024-02-21T03:32:26;27.70;;;16.08;;
47523;SDS011;33253;42.144;25.884;2024-02-21T03:34:53;29.55;;;16.33;;
47523;SDS011;33253;42.144;25.884;2024-02-21T03:37:19;32.08;;;17.23;;
47523;SDS011;33253;42.144;25.884;2024-02-21T03:39:45;30.77;;;16.85;;
47523;SDS011;33253;42.144;25.884;2024-02-21T03:42:10;38.47;;;21.23;;
47523;SDS011;33253;42.144;25.884;2024-02-21T03:44:36;33.67;;;18.50;;
47523;SDS011;33253;42.144;25.884;2024-02-21T03:47:02;42.55;;;21.42;;
47523;SDS011;33253;42.144;25.884;2024-02-21T03:49:27;37.38;;;19.80;;
47523;SDS011;33253;42.144;25.884;2024-02-21T03:51:53;31.48;;;16.88;;
47523;SDS011;33253;42.144;25.884;2024-02-21T03:54:19;32.97;;;18.17;;
47523;SDS011;33253;42.144;25.884;2024-02-21T03:56:45;29.67;;;17.23;;
47523;SDS011;33253;42.144;25.884;2024-02-21T03:59:12;32.42;;;18.13;;
47523;SDS011;33253;42.144;25.884;2024-02-21T04:01:38;30.90;;;17.55;;
47523;SDS011;33253;42.144;25.884;2024-02-21T04:04:04;31.58;;;18.08;;
47523;SDS011;33253;42.144;25.884;2024-02-21T04:06:29;30.70;;;17.38;;
47523;SDS011;33253;42.144;25.884;2024-02-21T04:08:55;33.17;;;18.08;;
47523;SDS011;33253;42.144;25.884;2024-02-21T04:11:20;31.55;;;17.60;;
47523;SDS011;33253;42.144;25.884;2024-02-21T04:13:46;36.53;;;17.60;;
47523;SDS011;33253;42.144;25.884;2024-02-21T04:16:14;32.22;;;17.45;;
47523;SDS011;33253;42.144;25.884;2024-02-21T04:18:40;33.70;;;18.95;;
47523;SDS011;33253;42.144;25.884;2024-02-21T04:21:06;30.45;;;18.38;;
47523;SDS011;33253;42.144;25.884;2024-02-21T04:23:31;36.80;;;20.45;;
47523;SDS011;33253;42.144;25.884;2024-02-21T04:25:57;33.92;;;18.83;;
47523;SDS011;33253;42.144;25.884;2024-02-21T04:28:22;35.88;;;19.42;;
47523;SDS011;33253;42.144;25.884;2024-02-21T04:30:48;39.80;;;20.27;;
47523;SDS011;33253;42.144;25.884;2024-02-21T04:33:13;35.35;;;20.25;;
47523;SDS011;33253;42.144;25.884;2024-02-21T04:35:39;33.30;;;19.10;;
47523;SDS011;33253;42.144;25.884;2024-02-21T04:38:04;32.25;;;19.52;;
47523;SDS011;33253;42.144;25.884;2024-02-21T04:40:30;30.52;;;18.65;;
47523;SDS011;33253;42.144;25.884;2024-02-21T04:42:56;34.05;;;20.40;;
47523;SDS011;33253;42.144;25.884;2024-02-21T04:45:22;33.25;;;18.92;;
47523;SDS011;33253;42.144;25.884;2024-02-21T04:47:47;30.23;;;17.00;;
47523;SDS011;33253;42.144;25.884;2024-02-21T04:50:13;32.78;;;19.50;;
47523;SDS011;33253;42.144;25.884;2024-02-21T04:52:39;34.55;;;18.65;;
47523;SDS011;33253;42.144;25.884;2024-02-21T04:55:04;30.42;;;17.52;;
47523;SDS011;33253;42.144;25.884;2024-02-21T04:57:32;31.15;;;17.15;;
47523;SDS011;33253;42.144;25.884;2024-02-21T04:59:57;29.38;;;16.95;;
47523;SDS011;33253;42.144;25.884;2024-02-21T05:02:23;30.65;;;15.95;;
47523;SDS011;33253;42.144;25.884;2024-02-21T05:04:49;33.97;;;18.80;;
47523;SDS011;33253;42.144;25.884;2024-02-21T05:07:15;37.10;;;18.17;;
47523;SDS011;33253;42.144;25.884;2024-02-21T05:09:42;34.15;;;20.17;;
47523;SDS011;33253;42.144;25.884;2024-02-21T05:12:08;32.95;;;20.15;;
47523;SDS011;33253;42.144;25.884;2024-02-21T05:14:33;30.85;;;18.05;;
47523;SDS011;33253;42.144;25.884;2024-02-21T05:16:59;36.20;;;19.70;;
47523;SDS011;33253;42.144;25.884;2024-02-21T05:19:25;33.30;;;19.30;;
47523;SDS011;33253;42.144;25.884;2024-02-21T05:21:50;30.67;;;17.77;;
47523;SDS011;33253;42.144;25.884;2024-02-21T05:24:16;26.48;;;16.70;;
47523;SDS011;33253;42.144;25.884;2024-02-21T05:26:41;31.23;;;16.45;;
47523;SDS011;33253;42.144;25.884;2024-02-21T05:29:07;27.55;;;16.20;;
47523;SDS011;33253;42.144;25.884;2024-02-21T05:34:22;26.50;;;16.55;;
47523;SDS011;33253;42.144;25.884;2024-02-21T05:36:48;28.58;;;17.17;;
47523;SDS011;33253;42.144;25.884;2024-02-21T05:39:17;29.83;;;17.10;;
47523;SDS011;33253;42.144;25.884;2024-02-21T05:41:42;34.65;;;18.75;;
47523;SDS011;33253;42.144;25.884;2024-02-21T05:44:08;27.92;;;16.70;;
47523;SDS011;33253;42.144;25.884;2024-02-21T05:46:34;32.08;;;17.50;;
47523;SDS011;33253;42.144;25.884;2024-02-21T05:49:00;28.05;;;16.90;;
47523;SDS011;33253;42.144;25.884;2024-02-21T05:51:26;29.42;;;16.90;;
47523;SDS011;33253;42.144;25.884;2024-02-21T05:53:51;27.95;;;15.35;;
47523;SDS011;33253;42.144;25.884;2024-02-21T05:56:17;27.83;;;15.68;;
47523;SDS011;33253;42.144;25.884;2024-02-21T05:58:43;30.95;;;16.73;;
47523;SDS011;33253;42.144;25.884;2024-02-21T06:01:08;26.02;;;17.20;;
47523;SDS011;33253;42.144;25.884;2024-02-21T06:03:34;29.77;;;17.13;;
47523;SDS011;33253;42.144;25.884;2024-02-21T06:06:01;38.28;;;20.77;;
47523;SDS011;33253;42.144;25.884;2024-02-21T06:08:27;90.20;;;38.53;;
47523;SDS011;33253;42.144;25.884;2024-02-21T06:10:53;137.55;;;53.60;;
47523;SDS011;33253;42.144;25.884;2024-02-21T06:13:28;59.25;;;32.33;;
47523;SDS011;33253;42.144;25.884;2024-02-21T06:15:54;42.45;;;24.30;;
47523;SDS011;33253;42.144;25.884;2024-02-21T06:18:20;33.67;;;20.55;;
47523;SDS011;33253;42.144;25.884;2024-02-21T06:20:46;38.65;;;22.33;;
47523;SDS011;33253;42.144;25.884;2024-02-21T06:23:12;35.85;;;22.70;;
47523;SDS011;33253;42.144;25.884;2024-02-21T06:25:44;39.78;;;23.20;;
47523;SDS011;33253;42.144;25.884;2024-02-21T06:28:11;35.85;;;21.13;;
47523;SDS011;33253;42.144;25.884;2024-02-21T06:30:38;35.55;;;21.23;;
47523;SDS011;33253;42.144;25.884;2024-02-21T06:33:04;41.33;;;27.23;;
47523;SDS011;33253;42.144;25.884;2024-02-21T06:35:30;36.58;;;24.70;;
47523;SDS011;33253;42.144;25.884;2024-02-21T06:37:55;36.65;;;21.35;;
47523;SDS011;33253;42.144;25.884;2024-02-21T06:40:21;32.47;;;20.63;;
47523;SDS011;33253;42.144;25.884;2024-02-21T06:42:48;37.33;;;21.42;;
47523;SDS011;33253;42.144;25.884;2024-02-21T06:45:14;38.60;;;22.40;;
47523;SDS011;33253;42.144;25.884;2024-02-21T06:47:40;34.88;;;20.73;;
47523;SDS011;33253;42.144;25.884;2024-02-21T06:50:05;34.92;;;21.35;;
47523;SDS011;33253;42.144;25.884;2024-02-21T06:52:31;35.75;;;21.08;;
47523;SDS011;33253;42.144;25.884;2024-02-21T06:54:57;32.30;;;20.00;;
47523;SDS011;33253;42.144;25.884;2024-02-21T06:57:22;36.60;;;19.60;;
47523;SDS011;33253;42.144;25.884;2024-02-21T06:59:48;31.67;;;19.40;;
47523;SDS011;33253;42.144;25.884;2024-02-21T07:02:14;32.90;;;18.92;;
47523;SDS011;33253;42.144;25.884;2024-02-21T07:04:40;36.00;;;20.55;;
47523;SDS011;33253;42.144;25.884;2024-02-21T07:07:05;35.47;;;20.42;;
47523;SDS011;33253;42.144;25.884;2024-02-21T07:09:31;35.10;;;20.38;;
47523;SDS011;33253;42.144;25.884;2024-02-21T07:11:59;35.70;;;20.48;;
47523;SDS011;33253;42.144;25.884;2024-02-21T07:14:25;34.33;;;20.25;;
47523;SDS011;33253;42.144;25.884;2024-02-21T07:16:51;36.80;;;20.50;;
47523;SDS011;33253;42.144;25.884;2024-02-21T07:19:17;38.60;;;21.05;;
47523;SDS011;33253;42.144;25.884;2024-02-21T07:21:42;38.05;;;22.20;;
47523;SDS011;33253;42.144;25.884;2024-02-21T07:24:08;40.25;;;22.92;;
47523;SDS011;33253;42.144;25.884;2024-02-21T07:26:34;40.65;;;24.75;;
47523;SDS011;33253;42.144;25.884;2024-02-21T07:28:59;37.05;;;23.55;;
47523;SDS011;33253;42.144;25.884;2024-02-21T07:31:25;42.72;;;23.90;;
47523;SDS011;33253;42.144;25.884;2024-02-21T07:33:51;37.83;;;22.48;;
47523;SDS011;33253;42.144;25.884;2024-02-21T07:36:25;45.65;;;24.95;;
47523;SDS011;33253;42.144;25.884;2024-02-21T07:38:54;38.42;;;24.23;;
47523;SDS011;33253;42.144;25.884;2024-02-21T07:41:20;37.75;;;23.38;;
47523;SDS011;33253;42.144;25.884;2024-02-21T07:43:45;40.13;;;23.08;;
47523;SDS011;33253;42.144;25.884;2024-02-21T07:46:11;36.15;;;22.45;;
47523;SDS011;33253;42.144;25.884;2024-02-21T07:48:36;41.25;;;24.92;;
47523;SDS011;33253;42.144;25.884;2024-02-21T07:51:02;38.55;;;24.90;;
47523;SDS011;33253;42.144;25.884;2024-02-21T07:53:27;38.97;;;25.75;;
47523;SDS011;33253;42.144;25.884;2024-02-21T07:55:53;39.80;;;25.30;;
47523;SDS011;33253;42.144;25.884;2024-02-21T07:58:18;38.00;;;23.27;;
47523;SDS011;33253;42.144;25.884;2024-02-21T08:00:44;37.25;;;23.98;;
47523;SDS011;33253;42.144;25.884;2024-02-21T08:03:09;35.75;;;22.95;;
47523;SDS011;33253;42.144;25.884;2024-02-21T08:05:35;38.15;;;23.85;;
47523;SDS011;33253;42.144;25.884;2024-02-21T08:08:01;44.10;;;24.85;;
47523;SDS011;33253;42.144;25.884;2024-02-21T08:10:27;36.00;;;22.55;;
47523;SDS011;33253;42.144;25.884;2024-02-21T08:12:53;35.65;;;23.52;;
47523;SDS011;33253;42.144;25.884;2024-02-21T08:15:18;34.50;;;21.83;;
47523;SDS011;33253;42.144;25.884;2024-02-21T08:17:44;36.47;;;23.67;;
47523;SDS011;33253;42.144;25.884;2024-02-21T08:20:09;39.38;;;22.10;;
47523;SDS011;33253;42.144;25.884;2024-02-21T08:22:37;34.35;;;22.00;;
47523;SDS011;33253;42.144;25.884;2024-02-21T08:25:03;39.00;;;23.23;;
47523;SDS011;33253;42.144;25.884;2024-02-21T08:27:30;34.25;;;21.83;;
47523;SDS011;33253;42.144;25.884;2024-02-21T08:29:56;38.78;;;23.42;;
47523;SDS011;33253;42.144;25.884;2024-02-21T08:32:22;37.92;;;23.70;;
47523;SDS011;33253;42.144;25.884;2024-02-21T08:34:47;35.85;;;22.02;;
47523;SDS011;33253;42.144;25.884;2024-02-21T08:37:13;35.42;;;22.70;;
47523;SDS011;33253;42.144;25.884;2024-02-21T08:39:38;34.60;;;21.23;;
47523;SDS011;33253;42.144;25.884;2024-02-21T08:42:04;38.65;;;22.20;;
47523;SDS011;33253;42.144;25.884;2024-02-21T08:44:30;35.40;;;22.35;;
47523;SDS011;33253;42.144;25.884;2024-02-21T08:46:55;31.90;;;21.65;;
47523;SDS011;33253;42.144;25.884;2024-02-21T08:49:21;35.10;;;22.30;;
47523;SDS011;33253;42.144;25.884;2024-02-21T08:51:46;29.85;;;20.02;;
47523;SDS011;33253;42.144;25.884;2024-02-21T08:54:12;38.13;;;22.50;;
47523;SDS011;33253;42.144;25.884;2024-02-21T08:56:37;32.97;;;21.33;;
47523;SDS011;33253;42.144;25.884;2024-02-21T08:59:03;30.50;;;21.40;;
47523;SDS011;33253;42.144;25.884;2024-02-21T09:01:29;35.60;;;21.10;;
47523;SDS011;33253;42.144;25.884;2024-02-21T09:03:54;37.47;;;22.95;;
47523;SDS011;33253;42.144;25.884;2024-02-21T09:06:21;35.25;;;22.10;;
47523;SDS011;33253;42.144;25.884;2024-02-21T09:08:47;36.30;;;21.75;;
47523;SDS011;33253;42.144;25.884;2024-02-21T09:11:33;35.03;;;21.40;;
47523;SDS011;33253;42.144;25.884;2024-02-21T09:13:59;29.63;;;18.55;;
47523;SDS011;33253;42.144;25.884;2024-02-21T09:16:24;28.38;;;18.75;;
47523;SDS011;33253;42.144;25.884;2024-02-21T09:18:50;31.88;;;19.67;;
47523;SDS011;33253;42.144;25.884;2024-02-21T09:21:15;28.63;;;18.15;;
47523;SDS011;33253;42.144;25.884;2024-02-21T09:23:41;31.02;;;18.48;;
47523;SDS011;33253;42.144;25.884;2024-02-21T09:26:07;28.60;;;19.25;;
47523;SDS011;33253;42.144;25.884;2024-02-21T09:28:35;28.17;;;18.02;;
47523;SDS011;33253;42.144;25.884;2024-02-21T09:31:00;28.90;;;18.58;;
47523;SDS011;33253;42.144;25.884;2024-02-21T09:33:27;27.13;;;17.98;;
47523;SDS011;33253;42.144;25.884;2024-02-21T09:35:52;93.03;;;47.13;;
47523;SDS011;33253;42.144;25.884;2024-02-21T09:38:18;28.05;;;17.42;;
47523;SDS011;33253;42.144;25.884;2024-02-21T09:40:43;21.25;;;14.63;;
47523;SDS011;33253;42.144;25.884;2024-02-21T09:43:09;22.52;;;15.30;;
47523;SDS011;33253;42.144;25.884;2024-02-21T09:45:34;22.40;;;15.65;;
47523;SDS011;33253;42.144;25.884;2024-02-21T09:50:51;23.20;;;14.27;;
47523;SDS011;33253;42.144;25.884;2024-02-21T09:53:18;24.55;;;16.55;;
47523;SDS011;33253;42.144;25.884;2024-02-21T09:55:44;21.42;;;13.48;;
47523;SDS011;33253;42.144;25.884;2024-02-21T09:58:11;21.13;;;12.13;;
47523;SDS011;33253;42.144;25.884;2024-02-21T10:00:37;21.08;;;13.48;;
47523;SDS011;33253;42.144;25.884;2024-02-21T10:03:03;20.67;;;13.70;;
47523;SDS011;33253;42.144;25.884;2024-02-21T10:05:37;21.20;;;12.45;;
47523;SDS011;33253;42.144;25.884;2024-02-21T10:08:03;23.83;;;14.75;;
47523;SDS011;33253;42.144;25.884;2024-02-21T10:10:29;21.00;;;14.27;;
47523;SDS011;33253;42.144;25.884;2024-02-21T10:12:55;21.33;;;12.82;;
47523;SDS011;33253;42.144;25.884;2024-02-21T10:15:21;19.00;;;11.18;;
47523;SDS011;33253;42.144;25.884;2024-02-21T10:17:48;18.48;;;10.82;;
47523;SDS011;33253;42.144;25.884;2024-02-21T10:20:24;21.08;;;12.00;;
47523;SDS011;33253;42.144;25.884;2024-02-21T10:22:59;21.13;;;13.20;;
47523;SDS011;33253;42.144;25.884;2024-02-21T10:25:38;20.67;;;12.27;;
47523;SDS011;33253;42.144;25.884;2024-02-21T10:28:06;20.35;;;12.02;;
47523;SDS011;33253;42.144;25.884;2024-02-21T10:30:32;20.73;;;12.02;;
47523;SDS011;33253;42.144;25.884;2024-02-21T10:32:58;16.85;;;11.45;;
47523;SDS011;33253;42.144;25.884;2024-02-21T10:35:27;17.23;;;11.77;;
47523;SDS011;33253;42.144;25.884;2024-02-21T10:37:56;17.75;;;10.27;;
47523;SDS011;33253;42.144;25.884;2024-02-21T10:40:43;18.83;;;11.98;;
47523;SDS011;33253;42.144;25.884;2024-02-21T10:43:12;18.17;;;11.93;;
47523;SDS011;33253;42.144;25.884;2024-02-21T10:45:39;23.08;;;14.88;;
47523;SDS011;33253;42.144;25.884;2024-02-21T10:48:13;17.20;;;11.98;;
47523;SDS011;33253;42.144;25.884;2024-02-21T10:56:26;23.00;;;14.40;;
47523;SDS011;33253;42.144;25.884;2024-02-21T10:58:54;18.08;;;11.82;;
47523;SDS011;33253;42.144;25.884;2024-02-21T11:01:22;15.20;;;10.40;;
47523;SDS011;33253;42.144;25.884;2024-02-21T11:03:49;16.58;;;10.73;;
47523;SDS011;33253;42.144;25.884;2024-02-21T11:06:18;15.07;;;10.82;;
47523;SDS011;33253;42.144;25.884;2024-02-21T11:08:47;16.42;;;11.52;;
47523;SDS011;33253;42.144;25.884;2024-02-21T11:11:13;15.65;;;10.77;;
47523;SDS011;33253;42.144;25.884;2024-02-21T11:13:44;16.15;;;11.35;;
47523;SDS011;33253;42.144;25.884;2024-02-21T11:16:11;15.90;;;9.60;;
47523;SDS011;33253;42.144;25.884;2024-02-21T11:18:46;15.70;;;10.77;;
47523;SDS011;33253;42.144;25.884;2024-02-21T11:21:12;17.17;;;10.68;;
47523;SDS011;33253;42.144;25.884;2024-02-21T11:23:39;12.00;;;8.68;;
47523;SDS011;33253;42.144;25.884;2024-02-21T11:26:07;12.95;;;8.80;;
47523;SDS011;33253;42.144;25.884;2024-02-21T11:28:34;11.15;;;7.95;;
47523;SDS011;33253;42.144;25.884;2024-02-21T11:31:08;14.32;;;9.23;;
47523;SDS011;33253;42.144;25.884;2024-02-21T11:33:34;11.95;;;7.97;;
47523;SDS011;33253;42.144;25.884;2024-02-21T11:36:00;15.57;;;10.35;;
47523;SDS011;33253;42.144;25.884;2024-02-21T11:38:26;16.35;;;10.82;;
47523;SDS011;33253;42.144;25.884;2024-02-21T11:40:52;15.68;;;10.07;;
47523;SDS011;33253;42.144;25.884;2024-02-21T11:43:17;15.80;;;10.60;;
47523;SDS011;33253;42.144;25.884;2024-02-21T11:45:43;16.77;;;9.85;;
47523;SDS011;33253;42.144;25.884;2024-02-21T11:48:08;16.05;;;10.38;;
47523;SDS011;33253;42.144;25.884;2024-02-21T11:50:34;18.98;;;9.55;;
47523;SDS011;33253;42.144;25.884;2024-02-21T11:53:01;15.45;;;10.68;;
47523;SDS011;33253;42.144;25.884;2024-02-21T11:55:27;16.00;;;10.75;;
47523;SDS011;33253;42.144;25.884;2024-02-21T11:57:53;15.90;;;10.80;;
47523;SDS011;33253;42.144;25.884;2024-02-21T12:00:19;13.25;;;9.32;;
47523;SDS011;33253;42.144;25.884;2024-02-21T12:02:46;13.02;;;9.70;;
47523;SDS011;33253;42.144;25.884;2024-02-21T12:05:11;15.27;;;10.20;;
47523;SDS011;33253;42.144;25.884;2024-02-21T12:07:37;14.07;;;8.50;;
47523;SDS011;33253;42.144;25.884;2024-02-21T12:10:15;14.10;;;10.07;;
47523;SDS011;33253;42.144;25.884;2024-02-21T12:12:40;15.93;;;9.55;;
47523;SDS011;33253;42.144;25.884;2024-02-21T12:15:06;15.93;;;10.70;;
47523;SDS011;33253;42.144;25.884;2024-02-21T12:17:36;13.02;;;9.10;;
47523;SDS011;33253;42.144;25.884;2024-02-21T12:20:02;16.02;;;10.57;;
47523;SDS011;33253;42.144;25.884;2024-02-21T12:22:35;14.90;;;11.13;;
47523;SDS011;33253;42.144;25.884;2024-02-21T12:25:04;14.63;;;9.77;;
47523;SDS011;33253;42.144;25.884;2024-02-21T12:27:40;15.73;;;9.90;;
47523;SDS011;33253;42.144;25.884;2024-02-21T12:30:06;18.73;;;10.77;;
47523;SDS011;33253;42.144;25.884;2024-02-21T12:32:35;14.87;;;10.20;;
47523;SDS011;33253;42.144;25.884;2024-02-21T12:35:01;16.38;;;10.55;;
47523;SDS011;33253;42.144;25.884;2024-02-21T12:37:27;16.52;;;10.20;;
47523;SDS011;33253;42.144;25.884;2024-02-21T12:39:53;14.43;;;10.05;;
47523;SDS011;33253;42.144;25.884;2024-02-21T12:42:18;14.93;;;10.30;;
47523;SDS011;33253;42.144;25.884;2024-02-21T12:44:44;14.80;;;9.50;;
47523;SDS011;33253;42.144;25.884;2024-02-21T12:47:10;16.95;;;10.80;;
47523;SDS011;33253;42.144;25.884;2024-02-21T12:49:35;14.43;;;10.13;;
47523;SDS011;33253;42.144;25.884;2024-02-21T12:52:02;13.57;;;10.00;;
47523;SDS011;33253;42.144;25.884;2024-02-21T12:54:28;13.35;;;10.02;;
47523;SDS011;33253;42.144;25.884;2024-02-21T12:56:56;19.02;;;11.60;;
47523;SDS011;33253;42.144;25.884;2024-02-21T12:59:22;21.25;;;13.48;;
47523;SDS011;33253;42.144;25.884;2024-02-21T13:01:48;21.10;;;11.00;;
47523;SDS011;33253;42.144;25.884;2024-02-21T13:04:13;153.25;;;16.38;;
47523;SDS011;33253;42.144;25.884;2024-02-21T13:09:09;15.10;;;8.88;;
47523;SDS011;33253;42.144;25.884;2024-02-21T13:11:37;37.05;;;13.85;;
47523;SDS011;33253;42.144;25.884;2024-02-21T13:14:02;19.48;;;11.02;;
47523;SDS011;33253;42.144;25.884;2024-02-21T13:16:28;15.20;;;9.63;;
47523;SDS011;33253;42.144;25.884;2024-02-21T13:18:53;14.68;;;9.23;;
47523;SDS011;33253;42.144;25.884;2024-02-21T13:21:19;12.73;;;9.02;;
47523;SDS011;33253;42.144;25.884;2024-02-21T13:23:44;10.73;;;8.25;;
47523;SDS011;33253;42.144;25.884;2024-02-21T13:26:10;12.43;;;8.75;;
47523;SDS011;33253;42.144;25.884;2024-02-21T13:28:36;13.23;;;8.98;;
47523;SDS011;33253;42.144;25.884;2024-02-21T13:31:01;15.82;;;9.95;;
47523;SDS011;33253;42.144;25.884;2024-02-21T13:33:28;12.82;;;9.00;;
47523;SDS011;33253;42.144;25.884;2024-02-21T13:35:54;13.10;;;9.45;;
47523;SDS011;33253;42.144;25.884;2024-02-21T13:38:19;12.05;;;8.48;;
47523;SDS011;33253;42.144;25.884;2024-02-21T13:40:46;12.07;;;7.80;;
47523;SDS011;33253;42.144;25.884;2024-02-21T13:43:11;13.10;;;7.72;;
47523;SDS011;33253;42.144;25.884;2024-02-21T13:45:38;13.20;;;8.10;;
47523;SDS011;33253;42.144;25.884;2024-02-21T13:48:06;12.43;;;9.02;;
47523;SDS011;33253;42.144;25.884;2024-02-21T13:50:35;12.32;;;8.80;;
47523;SDS011;33253;42.144;25.884;2024-02-21T13:53:07;12.18;;;8.57;;
47523;SDS011;33253;42.144;25.884;2024-02-21T13:55:35;13.65;;;9.38;;
47523;SDS011;33253;42.144;25.884;2024-02-21T13:58:01;12.90;;;8.50;;
47523;SDS011;33253;42.144;25.884;2024-02-21T14:00:28;12.07;;;7.90;;
47523;SDS011;33253;42.144;25.884;2024-02-21T14:02:53;14.38;;;9.77;;
47523;SDS011;33253;42.144;25.884;2024-02-21T14:05:19;13.48;;;9.30;;
47523;SDS011;33253;42.144;25.884;2024-02-21T14:07:45;16.00;;;9.35;;
47523;SDS011;33253;42.144;25.884;2024-02-21T14:10:10;11.65;;;7.20;;
47523;SDS011;33253;42.144;25.884;2024-02-21T14:12:36;11.25;;;7.72;;
47523;SDS011;33253;42.144;25.884;2024-02-21T14:15:02;12.57;;;8.35;;
47523;SDS011;33253;42.144;25.884;2024-02-21T14:17:28;10.32;;;6.80;;
47523;SDS011;33253;42.144;25.884;2024-02-21T14:19:53;12.13;;;7.22;;